Time;durP1;ratioP1;P1;durP2;ratioP2;P2;SDS_P1;SDS_P2;PMS_P1;PMS_P2;Temp;Humidity;BMP_temperature;BMP_pressure;BME280_temperature;BME280_humidity;BME280_pressure;Samples;Min_cycle;Max_cycle;Signal;HPM_P1;HPM_P2
2021/12/25 00:01:45;;;;;;;1.23;0.95;;;17.00;61.70;;;;;;5067665;28;48200;-77
2021/12/25 00:04:12;;;;;;;1.10;1.00;;;17.00;61.50;;;;;;5064635;28;45334;-77
2021/12/25 00:06:41;;;;;;;1.73;1.10;;;17.00;61.40;;;;;;5068978;28;45313;-77
2021/12/25 00:09:08;;;;;;;1.10;1.00;;;17.00;61.30;;;;;;5063371;28;45511;-77
2021/12/25 00:11:35;;;;;;;1.77;0.80;;;17.00;61.20;;;;;;5057738;28;46203;-77
2021/12/25 00:14:09;;;;;;;1.55;1.10;;;17.10;61.30;;;;;;5049118;28;45150;-78
2021/12/25 00:16:36;;;;;;;1.35;1.13;;;17.10;61.20;;;;;;5055711;28;45263;-77
2021/12/25 00:19:04;;;;;;;1.30;0.88;;;17.10;60.90;;;;;;5061957;28;45400;-77
2021/12/25 00:21:31;;;;;;;1.08;1.00;;;17.10;61.00;;;;;;5058814;28;47281;-77
2021/12/25 00:23:59;;;;;;;0.90;0.82;;;17.00;60.90;;;;;;5063088;28;45359;-77
2021/12/25 00:26:41;;;;;;;1.05;0.90;;;17.10;61.10;;;;;;5060922;28;45360;-77
2021/12/25 00:29:31;;;;;;;1.40;1.17;;;17.10;60.70;;;;;;5067119;28;45445;-77
2021/12/25 00:32:12;;;;;;;1.20;1.10;;;17.10;60.60;;;;;;5066047;28;48108;-77
2021/12/25 00:34:40;;;;;;;1.65;1.20;;;17.00;60.50;;;;;;5068855;28;45489;-78
2021/12/25 00:37:08;;;;;;;1.92;1.15;;;17.10;60.50;;;;;;5067661;28;45176;-78
2021/12/25 00:39:37;;;;;;;1.10;1.00;;;17.00;60.30;;;;;;5054528;28;45282;-77
2021/12/25 00:42:06;;;;;;;1.40;1.13;;;17.00;60.30;;;;;;5053721;28;46278;-77
2021/12/25 00:44:33;;;;;;;1.70;1.20;;;17.00;60.20;;;;;;5062791;28;45637;-77
2021/12/25 00:47:01;;;;;;;0.95;0.85;;;17.00;60.30;;;;;;5062541;28;45314;-77
2021/12/25 00:49:28;;;;;;;3.53;1.10;;;17.10;60.50;;;;;;5066638;28;45403;-77
2021/12/25 00:51:55;;;;;;;2.28;1.10;;;17.10;60.50;;;;;;5068707;28;45495;-77
2021/12/25 00:54:23;;;;;;;1.30;1.10;;;17.10;60.30;;;;;;5065525;28;46804;-77
2021/12/25 00:56:52;;;;;;;1.00;0.90;;;17.10;60.10;;;;;;5068087;28;45279;-78
2021/12/25 00:59:19;;;;;;;1.08;0.98;;;17.10;60.30;;;;;;5063690;28;45270;-78
2021/12/25 01:01:46;;;;;;;1.98;1.10;;;17.10;60.00;;;;;;5061758;28;47471;-77
2021/12/25 01:04:13;;;;;;;1.40;1.15;;;17.10;60.00;;;;;;5067822;28;46061;-77
2021/12/25 01:06:40;;;;;;;1.20;1.10;;;17.10;60.00;;;;;;5069333;28;45275;-77
2021/12/25 01:09:08;;;;;;;1.95;1.35;;;17.10;59.80;;;;;;5047968;28;45659;-77
2021/12/25 01:11:36;;;;;;;1.30;1.20;;;17.10;59.80;;;;;;5068340;28;46827;-77
2021/12/25 01:14:12;;;;;;;1.27;1.17;;;17.10;59.80;;;;;;5049785;28;45807;-77
2021/12/25 01:19:45;;;;;;;1.38;1.25;;;17.10;59.70;;;;;;5057527;28;45290;-78
2021/12/25 01:30:33;;;;;;;0.88;0.85;;;17.00;59.50;;;;;;5054988;28;45356;-77
2021/12/25 01:33:25;;;;;;;1.05;0.95;;;17.10;59.30;;;;;;5060437;28;47799;-77
2021/12/25 01:38:59;;;;;;;1.58;0.95;;;17.10;59.60;;;;;;5045412;28;45209;-78
2021/12/25 01:41:54;;;;;;;0.70;0.70;;;17.10;59.20;;;;;;5048014;28;45373;-77
2021/12/25 01:49:53;;;;;;;1.02;0.90;;;17.10;59.00;;;;;;5049062;28;45351;-77
2021/12/25 01:52:26;;;;;;;1.58;1.00;;;17.10;58.80;;;;;;5063669;28;45218;-77
2021/12/25 01:54:53;;;;;;;1.08;0.98;;;17.10;58.80;;;;;;5063937;28;47551;-77
2021/12/25 01:57:21;;;;;;;0.70;0.70;;;17.10;58.70;;;;;;5066919;28;45470;-78
2021/12/25 01:59:49;;;;;;;1.10;0.90;;;17.10;58.60;;;;;;5063411;28;45163;-78
2021/12/25 02:02:17;;;;;;;1.25;1.15;;;17.10;58.70;;;;;;5055521;28;45620;-77
2021/12/25 02:04:44;;;;;;;0.60;0.60;;;17.10;58.50;;;;;;5056176;28;46895;-77
2021/12/25 02:07:12;;;;;;;0.93;0.80;;;17.10;58.50;;;;;;5063826;28;45212;-77
2021/12/25 02:09:39;;;;;;;0.50;0.50;;;17.00;58.30;;;;;;5067856;28;45358;-77
2021/12/25 02:12:07;;;;;;;0.68;0.68;;;17.10;58.30;;;;;;5066343;28;45414;-77
2021/12/25 02:14:36;;;;;;;0.65;0.65;;;17.10;58.50;;;;;;5064256;28;48088;-77
2021/12/25 02:17:15;;;;;;;0.73;0.60;;;17.10;58.30;;;;;;5053173;28;45210;-78
2021/12/25 02:19:50;;;;;;;1.15;0.77;;;17.10;58.40;;;;;;5049017;28;46304;-78
2021/12/25 02:22:19;;;;;;;0.68;0.63;;;17.10;58.20;;;;;;5057471;28;45217;-78
2021/12/25 02:24:46;;;;;;;0.70;0.68;;;17.10;58.20;;;;;;5067297;28;45483;-77
2021/12/25 02:27:13;;;;;;;0.77;0.70;;;17.10;57.90;;;;;;5059994;28;45275;-77
2021/12/25 02:29:41;;;;;;;0.85;0.68;;;17.10;57.70;;;;;;5050140;28;45417;-77
2021/12/25 02:32:11;;;;;;;0.80;0.80;;;17.20;57.80;;;;;;5059605;28;45408;-77
2021/12/25 02:34:37;;;;;;;0.68;0.60;;;17.10;57.70;;;;;;5057577;28;47355;-77
2021/12/25 02:37:06;;;;;;;0.73;0.70;;;17.10;57.50;;;;;;5047486;28;45201;-77
2021/12/25 02:39:33;;;;;;;0.95;0.70;;;17.10;57.60;;;;;;5057196;28;45307;-77
2021/12/25 02:42:01;;;;;;;0.80;0.80;;;17.10;57.50;;;;;;5066480;28;45246;-78
2021/12/25 02:44:28;;;;;;;0.70;0.70;;;17.10;57.20;;;;;;5059888;28;47462;-78
2021/12/25 02:46:58;;;;;;;1.08;0.73;;;17.10;57.20;;;;;;5062832;28;45207;-78
2021/12/25 02:49:26;;;;;;;0.70;0.60;;;17.10;57.00;;;;;;5052067;28;45244;-77
2021/12/25 02:51:53;;;;;;;0.93;0.88;;;17.10;57.10;;;;;;5047321;28;45308;-77
2021/12/25 02:54:21;;;;;;;0.80;0.80;;;17.00;56.80;;;;;;5058790;28;47315;-77
2021/12/25 02:56:49;;;;;;;0.70;0.70;;;17.00;56.80;;;;;;5050224;28;45937;-77
2021/12/25 02:59:16;;;;;;;1.40;0.90;;;17.10;58.80;;;;;;5065576;28;45506;-77
2021/12/25 03:01:44;;;;;;;0.80;0.80;;;17.10;57.00;;;;;;5062765;28;45297;-77
2021/12/25 03:04:11;;;;;;;1.02;0.90;;;17.10;56.60;;;;;;5066209;28;45203;-77
2021/12/25 03:06:38;;;;;;;0.95;0.82;;;17.10;57.10;;;;;;5084886;28;45369;-77
2021/12/25 03:09:07;;;;;;;1.08;0.93;;;17.10;56.60;;;;;;5054703;27;45226;-78
2021/12/25 03:11:36;;;;;;;0.80;0.80;;;17.10;56.50;;;;;;5050426;28;45422;-77
2021/12/25 03:14:14;;;;;;;0.73;0.73;;;17.10;56.20;;;;;;5055451;28;47270;-77
2021/12/25 03:16:41;;;;;;;0.93;0.88;;;17.10;56.40;;;;;;5050505;28;45478;-77
2021/12/25 03:19:17;;;;;;;1.10;1.00;;;17.10;56.40;;;;;;5053777;28;45202;-77
2021/12/25 03:21:44;;;;;;;1.23;1.13;;;17.10;55.80;;;;;;5054661;28;45534;-77
2021/12/25 03:24:11;;;;;;;1.10;1.00;;;17.10;56.00;;;;;;5069551;28;48479;-77
2021/12/25 03:26:39;;;;;;;0.98;0.90;;;17.10;55.90;;;;;;5066527;28;45265;-77
2021/12/25 03:29:08;;;;;;;1.30;1.20;;;17.10;55.90;;;;;;5062672;28;45152;-77
2021/12/25 03:31:35;;;;;;;1.10;1.00;;;17.10;55.60;;;;;;5060964;28;45320;-77
2021/12/25 03:34:02;;;;;;;1.15;1.05;;;17.10;55.80;;;;;;5066505;28;45332;-77
2021/12/25 03:36:28;;;;;;;1.67;1.10;;;17.10;55.70;;;;;;5060517;28;45548;-77
2021/12/25 03:38:55;;;;;;;1.42;1.33;;;17.10;55.70;;;;;;5050388;28;45408;-78
2021/12/25 03:41:24;;;;;;;1.15;1.05;;;17.10;55.90;;;;;;5065244;28;45352;-78
2021/12/25 03:43:53;;;;;;;0.95;0.93;;;17.10;55.80;;;;;;5065429;28;48419;-77
2021/12/25 03:46:20;;;;;;;1.40;1.30;;;17.10;55.60;;;;;;5074899;27;45573;-78
2021/12/25 03:59:55;;;;;;;1.50;1.30;;;17.10;55.80;;;;;;5069836;28;45246;-77
2021/12/25 04:02:28;;;;;;;1.58;1.42;;;17.10;55.30;;;;;;5059252;28;45395;-77
2021/12/25 04:04:56;;;;;;;1.90;1.40;;;17.10;55.30;;;;;;5067320;28;46756;-77
2021/12/25 04:07:47;;;;;;;1.30;1.20;;;17.10;55.10;;;;;;5069072;28;45156;-77
2021/12/25 04:10:15;;;;;;;1.15;1.05;;;17.10;55.10;;;;;;5059034;28;45206;-78
2021/12/25 04:12:42;;;;;;;1.38;1.27;;;17.10;54.80;;;;;;5068682;28;45377;-77
2021/12/25 04:15:11;;;;;;;1.40;1.27;;;17.10;54.80;;;;;;5050842;28;46485;-77
2021/12/25 04:17:38;;;;;;;1.48;1.38;;;17.10;54.90;;;;;;5067161;28;45880;-77
2021/12/25 04:20:06;;;;;;;1.50;1.40;;;17.00;54.80;;;;;;5056567;28;45227;-77
2021/12/25 04:22:42;;;;;;;1.80;1.20;;;17.00;54.70;;;;;;5066820;28;45220;-77
2021/12/25 04:25:09;;;;;;;1.55;1.30;;;17.10;54.70;;;;;;5057089;28;48088;-77
2021/12/25 04:27:37;;;;;;;1.38;1.27;;;17.10;55.10;;;;;;5058602;28;45280;-77
2021/12/25 04:30:18;;;;;;;1.23;1.08;;;17.10;54.80;;;;;;5069259;28;45259;-77
2021/12/25 05:03:05;;;;;;;1.20;1.10;;;17.10;54.00;;;;;;5066354;28;45295;-78
2021/12/25 05:05:35;;;;;;;1.30;1.20;;;17.00;53.80;;;;;;5053544;28;45380;-78
2021/12/25 05:08:02;;;;;;;1.35;1.25;;;17.00;53.80;;;;;;5056506;28;47672;-77
2021/12/25 05:10:29;;;;;;;1.23;1.13;;;17.10;54.00;;;;;;5067814;28;45271;-77
2021/12/25 05:12:57;;;;;;;1.30;1.20;;;17.10;54.30;;;;;;5065126;28;45238;-77
2021/12/25 05:18:21;;;;;;;1.10;1.00;;;17.10;54.20;;;;;;5002221;28;45314;-76
2021/12/25 05:20:49;;;;;;;1.50;1.40;;;17.00;53.90;;;;;;4999869;28;44765;-76
2021/12/25 05:23:16;;;;;;;1.38;1.27;;;17.10;53.70;;;;;;5010599;28;44651;-76
2021/12/25 05:25:43;;;;;;;1.50;1.40;;;17.10;53.10;;;;;;5012107;28;44865;-76
2021/12/25 05:28:12;;;;;;;1.33;1.23;;;17.10;53.40;;;;;;5030359;28;47430;-75
2021/12/25 05:30:40;;;;;;;1.67;1.30;;;17.10;53.30;;;;;;5013992;28;44730;-77
2021/12/25 05:33:07;;;;;;;1.42;1.30;;;17.00;53.00;;;;;;5001065;28;44949;-77
2021/12/25 05:35:34;;;;;;;1.13;1.02;;;17.00;53.10;;;;;;5014377;28;44828;-76
2021/12/25 05:38:02;;;;;;;1.23;1.00;;;17.00;53.20;;;;;;5009874;28;46494;-76
2021/12/25 05:40:29;;;;;;;1.20;1.02;;;17.00;52.80;;;;;;5017757;28;44662;-76
2021/12/25 05:42:56;;;;;;;1.10;1.00;;;17.00;52.90;;;;;;5016491;28;44803;-76
2021/12/25 05:45:23;;;;;;;1.17;0.90;;;17.10;53.30;;;;;;5008601;28;44867;-76
2021/12/25 05:47:50;;;;;;;1.10;1.00;;;17.10;52.90;;;;;;5009268;28;46259;-76
2021/12/25 05:50:16;;;;;;;1.27;1.10;;;17.00;53.10;;;;;;5010829;28;44615;-76
2021/12/25 05:52:43;;;;;;;1.83;1.15;;;17.10;53.20;;;;;;5017138;28;44614;-76
2021/12/25 05:55:11;;;;;;;1.20;1.10;;;17.00;52.50;;;;;;5014096;28;44662;-76
2021/12/25 05:57:38;;;;;;;1.13;0.95;;;17.00;52.70;;;;;;5009323;28;46633;-76
2021/12/25 06:00:08;;;;;;;1.35;1.00;;;17.10;52.80;;;;;;5009314;28;44678;-77
2021/12/25 06:02:35;;;;;;;1.15;1.05;;;17.10;53.20;;;;;;5011175;28;44702;-76
2021/12/25 06:05:04;;;;;;;1.10;1.00;;;17.10;52.70;;;;;;4995929;28;45143;-76
2021/12/25 06:07:31;;;;;;;1.13;1.02;;;17.10;52.80;;;;;;5005390;28;45349;-76
2021/12/25 06:09:58;;;;;;;1.10;0.90;;;17.10;52.70;;;;;;5013868;28;44813;-76
2021/12/25 06:12:27;;;;;;;1.23;1.10;;;17.10;52.80;;;;;;5004518;28;45068;-76
2021/12/25 06:14:54;;;;;;;1.20;1.10;;;17.00;52.20;;;;;;5008878;28;44680;-75
2021/12/25 06:17:21;;;;;;;1.58;1.20;;;17.10;53.40;;;;;;5006928;28;46588;-76
2021/12/25 06:19:48;;;;;;;1.05;0.80;;;17.00;54.40;;;;;;5010493;28;44943;-76
2021/12/25 06:22:15;;;;;;;1.50;1.08;;;17.10;54.80;;;;;;5010554;28;44916;-77
2021/12/25 06:24:43;;;;;;;1.38;1.05;;;17.10;54.90;;;;;;5013106;28;44813;-77
2021/12/25 06:27:10;;;;;;;1.20;1.10;;;17.10;54.40;;;;;;5005335;28;45476;-76
2021/12/25 06:29:39;;;;;;;1.30;1.00;;;17.10;54.20;;;;;;5009156;28;44678;-75
2021/12/25 06:32:06;;;;;;;1.35;1.23;;;17.10;54.50;;;;;;5014926;28;44701;-76
2021/12/25 06:34:33;;;;;;;1.55;0.80;;;17.10;54.60;;;;;;5009110;28;44885;-77
2021/12/25 06:36:59;;;;;;;0.93;0.93;;;17.10;54.80;;;;;;5009711;28;46553;-76
2021/12/25 06:39:27;;;;;;;1.20;1.08;;;17.10;54.90;;;;;;5002291;28;44788;-76
2021/12/25 06:41:54;;;;;;;1.20;0.90;;;17.20;55.10;;;;;;5005484;28;44642;-75
2021/12/25 06:44:23;;;;;;;0.70;0.70;;;17.20;54.90;;;;;;5013358;28;44716;-76
2021/12/25 06:46:52;;;;;;;1.50;0.80;;;17.10;54.80;;;;;;5013435;28;45324;-76
2021/12/25 06:49:19;;;;;;;1.30;1.00;;;17.20;54.80;;;;;;5009383;28;44531;-76
2021/12/25 06:51:46;;;;;;;1.10;1.00;;;17.20;54.70;;;;;;4999662;28;44696;-76
2021/12/25 06:54:13;;;;;;;1.27;0.85;;;17.20;55.00;;;;;;5010315;28;44858;-76
2021/12/25 06:56:40;;;;;;;1.45;1.05;;;17.10;54.80;;;;;;5009558;28;46859;-75
2021/12/25 06:59:07;;;;;;;1.20;1.10;;;17.10;54.90;;;;;;5012657;28;44586;-75
2021/12/25 07:01:35;;;;;;;1.08;0.90;;;17.10;54.60;;;;;;5008120;28;44735;-75
2021/12/25 07:04:03;;;;;;;1.05;0.95;;;17.10;54.60;;;;;;5007705;28;45138;-75
2021/12/25 07:06:30;;;;;;;0.75;0.73;;;17.10;54.30;;;;;;5008768;28;46743;-76
2021/12/25 07:08:57;;;;;;;1.00;0.90;;;17.10;54.90;;;;;;5011256;28;44687;-77
2021/12/25 07:11:23;;;;;;;0.65;0.65;;;17.10;54.60;;;;;;5005222;28;44572;-77
2021/12/25 07:13:51;;;;;;;1.40;0.77;;;17.10;55.20;;;;;;5018714;28;44701;-76
2021/12/25 07:16:18;;;;;;;1.27;1.00;;;17.10;54.90;;;;;;5009681;28;46364;-76
2021/12/25 07:18:45;;;;;;;0.80;0.80;;;17.00;55.70;;;;;;5005064;28;44709;-76
2021/12/25 07:21:13;;;;;;;0.60;0.60;;;17.00;55.30;;;;;;5012594;28;44749;-75
2021/12/25 07:23:40;;;;;;;0.73;0.73;;;17.00;54.80;;;;;;5012291;28;45130;-76
2021/12/25 07:26:07;;;;;;;1.17;0.90;;;17.00;54.90;;;;;;5011878;28;46798;-76
2021/12/25 07:28:34;;;;;;;0.80;0.80;;;17.00;54.80;;;;;;5016504;28;45211;-76
2021/12/25 07:31:01;;;;;;;1.00;0.90;;;17.00;54.90;;;;;;5009907;28;45122;-76
2021/12/25 07:33:29;;;;;;;0.60;0.60;;;17.00;54.80;;;;;;5007594;28;44898;-75
2021/12/25 07:35:57;;;;;;;0.80;0.80;;;17.00;54.90;;;;;;5011884;28;46588;-75
2021/12/25 07:38:25;;;;;;;0.80;0.77;;;17.00;54.70;;;;;;4998916;28;44627;-75
2021/12/25 07:40:52;;;;;;;0.80;0.80;;;17.00;54.40;;;;;;5011605;28;44703;-75
2021/12/25 07:43:19;;;;;;;1.08;1.02;;;17.00;54.60;;;;;;5011168;28;44858;-75
2021/12/25 07:45:47;;;;;;;0.77;0.77;;;16.90;54.50;;;;;;5010704;28;46284;-75
2021/12/25 07:48:14;;;;;;;1.00;0.90;;;17.00;54.40;;;;;;5012060;28;44686;-75
2021/12/25 07:50:41;;;;;;;0.80;0.80;;;17.00;54.40;;;;;;5001343;28;46595;-75
2021/12/25 07:53:10;;;;;;;0.70;0.70;;;17.00;55.60;;;;;;4999612;28;44893;-75
2021/12/25 07:55:39;;;;;;;1.15;0.50;;;17.00;54.70;;;;;;5000800;28;47088;-75
2021/12/25 07:58:07;;;;;;;0.80;0.80;;;17.00;54.80;;;;;;5010517;28;46030;-75
2021/12/25 08:00:34;;;;;;;0.60;0.60;;;17.00;54.70;;;;;;5009548;28;44734;-75
2021/12/25 08:03:00;;;;;;;0.93;0.60;;;17.00;54.80;;;;;;5012096;28;44899;-75
2021/12/25 08:05:27;;;;;;;0.90;0.77;;;17.00;54.50;;;;;;5009816;28;46619;-76
2021/12/25 08:07:54;;;;;;;0.70;0.70;;;17.00;54.60;;;;;;5010633;28;44919;-77
2021/12/25 08:10:21;;;;;;;0.70;0.55;;;17.00;54.60;;;;;;5000371;28;44716;-77
2021/12/25 08:12:52;;;;;;;0.60;0.60;;;17.00;54.50;;;;;;5011021;28;44770;-76
2021/12/25 08:15:20;;;;;;;0.85;0.63;;;17.00;54.70;;;;;;5010002;28;47391;-76
2021/12/25 08:17:47;;;;;;;0.68;0.68;;;17.00;54.40;;;;;;5011942;28;44655;-75
2021/12/25 08:20:14;;;;;;;0.70;0.70;;;17.00;54.20;;;;;;5010163;28;44870;-75
2021/12/25 08:22:43;;;;;;;0.68;0.68;;;17.00;54.20;;;;;;5010522;28;44785;-75
2021/12/25 08:25:11;;;;;;;0.65;0.65;;;17.00;54.10;;;;;;5010374;28;47170;-76
2021/12/25 08:27:40;;;;;;;0.65;0.65;;;17.00;54.20;;;;;;5007135;28;44768;-76
2021/12/25 08:30:13;;;;;;;0.70;0.60;;;17.00;54.00;;;;;;5010157;28;45054;-75
2021/12/25 08:32:42;;;;;;;0.52;0.52;;;17.00;54.00;;;;;;5009291;28;44828;-75
2021/12/25 08:35:10;;;;;;;0.70;0.70;;;17.00;54.20;;;;;;5007121;28;45184;-76
2021/12/25 08:37:37;;;;;;;0.75;0.60;;;16.90;54.00;;;;;;5003075;28;45628;-75
2021/12/25 08:40:06;;;;;;;0.60;0.60;;;17.00;54.00;;;;;;5008147;28;44639;-75
2021/12/25 08:42:33;;;;;;;0.43;0.43;;;17.00;54.20;;;;;;5003645;28;45930;-76
2021/12/25 08:45:10;;;;;;;0.52;0.52;;;17.00;54.00;;;;;;5010004;28;46301;-77
2021/12/25 08:47:38;;;;;;;0.60;0.60;;;17.00;54.10;;;;;;5003984;28;45076;-76
2021/12/25 08:50:10;;;;;;;0.60;0.60;;;17.00;54.40;;;;;;5010134;28;44687;-76
2021/12/25 08:52:37;;;;;;;0.50;0.50;;;17.00;54.20;;;;;;5011721;28;44876;-76
2021/12/25 08:55:05;;;;;;;0.80;0.70;;;17.00;54.30;;;;;;5020441;28;46856;-76
2021/12/25 08:57:32;;;;;;;1.33;0.82;;;17.00;54.10;;;;;;5009734;28;44745;-76
2021/12/25 08:59:59;;;;;;;0.82;0.80;;;16.90;54.00;;;;;;5010542;28;44737;-76
2021/12/25 09:02:27;;;;;;;1.10;0.88;;;16.90;54.10;;;;;;5010679;28;45201;-76
2021/12/25 09:04:55;;;;;;;0.52;0.52;;;17.00;54.40;;;;;;5003747;28;45451;-76
2021/12/25 09:07:22;;;;;;;0.52;0.52;;;17.00;54.00;;;;;;5002962;28;45182;-76
2021/12/25 09:09:49;;;;;;;0.70;0.70;;;17.00;53.30;;;;;;5013832;28;44740;-76
2021/12/25 09:12:16;;;;;;;0.50;0.50;;;17.00;52.60;;;;;;5011471;28;44727;-76
2021/12/25 09:14:44;;;;;;;0.50;0.50;;;17.00;53.20;;;;;;5010502;28;45936;-76
2021/12/25 09:17:12;;;;;;;0.68;0.60;;;17.00;51.20;;;;;;5000093;28;44661;-76
2021/12/25 09:19:39;;;;;;;0.52;0.40;;;16.90;51.10;;;;;;5009640;28;44721;-76
2021/12/25 09:22:08;;;;;;;1.10;0.70;;;16.90;51.30;;;;;;5010515;28;45031;-76
2021/12/25 09:24:35;;;;;;;1.55;0.80;;;17.00;51.80;;;;;;5009143;28;45029;-76
2021/12/25 09:27:02;;;;;;;0.60;0.60;;;16.90;52.40;;;;;;5010658;28;44714;-76
2021/12/25 09:29:29;;;;;;;0.73;0.60;;;16.90;52.80;;;;;;5010739;28;44700;-77
2021/12/25 09:31:56;;;;;;;0.85;0.70;;;16.90;52.60;;;;;;5007240;28;45930;-77
2021/12/25 09:34:23;;;;;;;0.70;0.70;;;16.90;52.00;;;;;;5003846;28;45005;-77
2021/12/25 09:36:50;;;;;;;0.50;0.50;;;16.90;52.80;;;;;;5009782;28;45673;-77
2021/12/25 09:39:19;;;;;;;1.25;0.98;;;16.90;52.50;;;;;;5003068;28;44870;-77
2021/12/25 09:41:46;;;;;;;0.73;0.70;;;17.00;53.60;;;;;;5010253;28;44895;-77
2021/12/25 09:44:13;;;;;;;0.73;0.60;;;16.90;53.70;;;;;;5009166;28;46415;-77
2021/12/25 09:46:40;;;;;;;1.00;0.80;;;16.90;53.50;;;;;;5006702;28;44657;-77
2021/12/25 09:49:08;;;;;;;0.98;0.70;;;16.90;53.30;;;;;;5007594;28;45072;-77
2021/12/25 09:51:35;;;;;;;0.70;0.70;;;16.90;52.50;;;;;;5007769;28;45549;-77
2021/12/25 09:54:06;;;;;;;1.08;0.80;;;16.90;52.20;;;;;;5006211;28;46934;-76
2021/12/25 09:56:38;;;;;;;0.70;0.68;;;17.00;52.00;;;;;;5009359;28;44698;-76
2021/12/25 09:59:06;;;;;;;0.98;0.80;;;17.00;52.50;;;;;;5003794;28;44866;-78
2021/12/25 10:01:36;;;;;;;1.13;0.80;;;17.10;53.20;;;;;;5006816;28;46763;-78
2021/12/25 10:04:04;;;;;;;0.65;0.65;;;17.10;53.40;;;;;;4999624;28;45365;-77
2021/12/25 10:06:34;;;;;;;0.60;0.60;;;17.10;53.20;;;;;;4998348;28;45232;-77
2021/12/25 10:09:12;;;;;;;0.60;0.60;;;17.20;53.30;;;;;;5004545;28;44828;-77
2021/12/25 10:12:02;;;;;;;0.70;0.70;;;17.20;53.40;;;;;;5006810;28;44776;-77
2021/12/25 10:14:29;;;;;;;0.70;0.60;;;17.00;53.00;;;;;;5004462;28;45994;-76
2021/12/25 10:16:57;;;;;;;0.70;0.68;;;17.20;53.30;;;;;;5014006;28;44873;-76
2021/12/25 10:19:27;;;;;;;0.90;0.70;;;17.20;53.40;;;;;;5001715;28;44856;-76
2021/12/25 10:22:05;;;;;;;0.63;0.50;;;17.20;53.40;;;;;;5016427;28;44768;-76
2021/12/25 10:24:37;;;;;;;0.60;0.60;;;17.10;53.30;;;;;;5014831;28;45461;-76
2021/12/25 10:27:15;;;;;;;0.70;0.60;;;17.10;53.60;;;;;;5014776;28;44949;-77
2021/12/25 10:29:42;;;;;;;1.08;0.77;;;17.10;53.00;;;;;;5013511;28;45093;-78
2021/12/25 10:32:19;;;;;;;0.70;0.70;;;17.20;53.30;;;;;;5014101;28;44752;-78
2021/12/25 10:34:47;;;;;;;0.80;0.80;;;17.20;53.30;;;;;;5001559;28;47035;-77
2021/12/25 10:37:16;;;;;;;0.70;0.70;;;17.20;53.50;;;;;;4997327;28;44635;-78
2021/12/25 10:39:43;;;;;;;0.88;0.60;;;17.10;53.60;;;;;;4998911;28;44618;-78
2021/12/25 10:42:17;;;;;;;0.80;0.80;;;17.20;53.70;;;;;;5017283;28;44798;-77
2021/12/25 10:44:45;;;;;;;0.68;0.65;;;17.20;53.60;;;;;;5015207;28;47294;-76
2021/12/25 10:47:14;;;;;;;0.82;0.82;;;17.20;53.40;;;;;;5022163;28;45218;-77
2021/12/25 10:49:43;;;;;;;1.00;0.80;;;17.20;53.60;;;;;;5036827;28;44630;-76
2021/12/25 10:52:13;;;;;;;1.08;0.70;;;17.20;53.60;;;;;;5018259;28;44887;-76
2021/12/25 10:54:43;;;;;;;0.60;0.60;;;17.20;53.50;;;;;;5012737;28;45649;-76
2021/12/25 10:57:10;;;;;;;0.98;0.55;;;17.20;54.60;;;;;;5013247;28;44876;-78
2021/12/25 10:59:46;;;;;;;0.80;0.60;;;17.20;54.60;;;;;;5016544;28;44646;-78
2021/12/25 11:02:28;;;;;;;0.73;0.70;;;17.20;53.20;;;;;;5015831;28;44768;-76
2021/12/25 11:04:55;;;;;;;0.50;0.50;;;17.20;53.20;;;;;;5018975;28;45712;-76
2021/12/25 11:07:22;;;;;;;1.05;0.70;;;17.20;53.30;;;;;;5013820;28;44600;-77
2021/12/25 11:10:04;;;;;;;0.52;0.52;;;17.20;53.70;;;;;;5014587;28;45088;-76
2021/12/25 11:12:32;;;;;;;1.02;0.70;;;17.20;53.60;;;;;;5015364;28;44753;-76
2021/12/25 11:15:14;;;;;;;0.60;0.50;;;17.20;53.40;;;;;;5014353;28;45680;-76
2021/12/25 11:17:43;;;;;;;1.15;0.82;;;17.20;53.40;;;;;;5010872;28;45426;-76
2021/12/25 11:20:18;;;;;;;0.50;0.50;;;17.20;53.50;;;;;;5016167;28;44888;-76
2021/12/25 11:22:50;;;;;;;0.75;0.60;;;17.20;53.70;;;;;;5015547;28;44800;-76
2021/12/25 11:25:20;;;;;;;0.95;0.70;;;17.20;53.80;;;;;;5013780;28;47533;-76
2021/12/25 11:27:47;;;;;;;0.55;0.55;;;17.20;53.70;;;;;;5012153;28;44945;-76
2021/12/25 11:30:18;;;;;;;0.80;0.60;;;17.20;53.70;;;;;;5008381;28;44712;-76
2021/12/25 11:32:45;;;;;;;1.20;0.75;;;17.20;53.60;;;;;;4996794;28;44904;-76
2021/12/25 11:35:13;;;;;;;1.00;0.70;;;17.10;53.40;;;;;;5009963;28;47125;-76
2021/12/25 11:37:40;;;;;;;0.50;0.50;;;17.20;53.40;;;;;;5011778;28;44598;-76
2021/12/25 11:40:10;;;;;;;0.60;0.60;;;17.10;53.30;;;;;;5011284;28;44578;-76
2021/12/25 11:42:41;;;;;;;0.85;0.65;;;17.10;53.50;;;;;;5011882;28;44762;-76
2021/12/25 11:45:16;;;;;;;0.60;0.60;;;17.20;53.60;;;;;;5009972;28;45336;-77
2021/12/25 11:47:45;;;;;;;0.85;0.68;;;17.20;53.30;;;;;;5012787;28;44956;-76
2021/12/25 11:50:14;;;;;;;0.75;0.55;;;17.10;53.10;;;;;;5020400;28;44778;-76
2021/12/25 11:52:50;;;;;;;0.80;0.52;;;17.10;53.20;;;;;;5012759;28;44746;-77
2021/12/25 11:55:29;;;;;;;0.88;0.80;;;17.20;53.00;;;;;;5010959;28;45208;-76
2021/12/25 11:58:04;;;;;;;0.70;0.60;;;17.20;52.50;;;;;;5012641;28;44880;-76
2021/12/25 12:00:42;;;;;;;0.57;0.40;;;17.20;52.70;;;;;;5011569;28;45120;-76
2021/12/25 12:03:10;;;;;;;0.70;0.70;;;17.10;52.70;;;;;;5010269;28;44800;-76
2021/12/25 12:05:39;;;;;;;0.63;0.50;;;17.20;52.50;;;;;;5016466;28;46455;-76
2021/12/25 12:08:09;;;;;;;1.55;0.80;;;17.10;52.50;;;;;;5006073;28;46055;-76
2021/12/25 12:10:56;;;;;;;1.48;0.75;;;17.10;52.60;;;;;;5011577;28;44818;-76
2021/12/25 12:13:25;;;;;;;0.50;0.50;;;17.10;53.10;;;;;;5000165;28;44886;-76
2021/12/25 12:15:57;;;;;;;0.88;0.55;;;17.10;53.00;;;;;;4992672;28;46337;-76
2021/12/25 12:18:40;;;;;;;0.60;0.50;;;17.10;52.90;;;;;;5012151;28;44829;-76
2021/12/25 12:21:33;;;;;;;0.73;0.50;;;17.10;52.80;;;;;;5012553;28;44658;-76
2021/12/25 12:24:38;;;;;;;0.75;0.60;;;17.10;52.90;;;;;;5011936;28;44842;-76
2021/12/25 12:27:05;;;;;;;0.52;0.45;;;17.10;53.20;;;;;;5004103;28;45219;-76
2021/12/25 12:29:49;;;;;;;0.70;0.70;;;17.10;52.70;;;;;;5008429;28;45129;-76
2021/12/25 12:32:44;;;;;;;1.73;0.60;;;17.10;52.90;;;;;;5005261;28;44712;-76
2021/12/25 12:35:33;;;;;;;0.60;0.52;;;17.20;52.60;;;;;;4957963;28;45060;-76
2021/12/25 12:38:26;;;;;;;0.90;0.57;;;17.20;52.40;;;;;;5004045;28;45232;-76
2021/12/25 12:41:15;;;;;;;0.85;0.40;;;17.10;52.20;;;;;;4997029;28;45023;-76
2021/12/25 12:44:10;;;;;;;0.82;0.70;;;17.10;51.80;;;;;;5011852;28;44962;-77
2021/12/25 12:47:04;;;;;;;0.95;0.80;;;17.10;51.40;;;;;;4987081;28;45125;-76
2021/12/25 12:49:35;;;;;;;0.70;0.60;;;17.10;51.30;;;;;;5011616;28;46855;-77
2021/12/25 12:52:18;;;;;;;0.40;0.40;;;17.10;51.30;;;;;;5009818;28;44644;-76
2021/12/25 12:54:48;;;;;;;0.85;0.50;;;17.10;51.30;;;;;;5018423;28;44997;-77
2021/12/25 12:57:21;;;;;;;0.70;0.70;;;17.10;51.40;;;;;;5028693;28;44722;-77
2021/12/25 12:59:50;;;;;;;0.88;0.60;;;17.10;51.30;;;;;;5010317;28;47092;-77
2021/12/25 13:02:18;;;;;;;0.52;0.50;;;17.10;51.40;;;;;;5010878;28;44712;-77
2021/12/25 13:04:49;;;;;;;0.75;0.60;;;17.10;51.30;;;;;;5011189;28;44915;-77
2021/12/25 13:07:18;;;;;;;0.60;0.60;;;17.10;51.30;;;;;;5008997;28;44634;-77
2021/12/25 13:09:51;;;;;;;0.68;0.50;;;17.10;51.30;;;;;;5003799;28;45265;-76
2021/12/25 13:12:34;;;;;;;0.45;0.43;;;17.10;51.40;;;;;;5007868;28;44902;-76
2021/12/25 13:15:04;;;;;;;1.80;0.77;;;17.10;51.40;;;;;;5007194;28;44673;-76
2021/12/25 13:17:31;;;;;;;0.80;0.70;;;17.10;51.30;;;;;;5009982;28;44822;-76
2021/12/25 13:20:00;;;;;;;0.40;0.40;;;17.10;51.40;;;;;;5010898;28;46334;-76
2021/12/25 13:22:27;;;;;;;0.65;0.55;;;17.10;51.40;;;;;;5009653;28;45281;-76
2021/12/25 13:25:04;;;;;;;1.35;0.60;;;17.10;51.40;;;;;;5010051;28;44551;-76
2021/12/25 13:27:31;;;;;;;0.60;0.50;;;17.10;51.40;;;;;;5015640;28;44678;-76
2021/12/25 13:30:06;;;;;;;0.90;0.60;;;17.10;51.40;;;;;;5008145;28;45520;-76
2021/12/25 13:32:33;;;;;;;1.52;0.50;;;17.10;51.40;;;;;;5010080;28;44686;-76
2021/12/25 13:35:01;;;;;;;0.45;0.45;;;17.10;51.30;;;;;;5010825;28;44668;-76
2021/12/25 13:37:28;;;;;;;0.50;0.50;;;17.00;51.20;;;;;;5008196;28;44709;-76
2021/12/25 13:39:55;;;;;;;0.50;0.50;;;17.00;51.20;;;;;;5010484;28;45313;-76
2021/12/25 13:42:22;;;;;;;0.75;0.60;;;17.10;51.30;;;;;;5009706;28;45255;-77
2021/12/25 13:44:49;;;;;;;1.50;0.90;;;17.10;51.30;;;;;;5010445;28;44683;-76
2021/12/25 13:47:22;;;;;;;0.63;0.52;;;17.10;51.40;;;;;;5010690;28;44833;-76
2021/12/25 13:49:51;;;;;;;0.50;0.50;;;17.10;51.40;;;;;;5009978;28;45762;-76
2021/12/25 13:52:29;;;;;;;0.57;0.57;;;17.10;51.30;;;;;;5010472;28;44654;-76
2021/12/25 13:55:07;;;;;;;0.70;0.40;;;17.00;51.20;;;;;;5007081;28;44578;-77
2021/12/25 13:57:35;;;;;;;2.78;0.85;;;17.10;51.30;;;;;;5003727;28;44817;-76
2021/12/25 14:00:07;;;;;;;0.73;0.60;;;17.00;51.20;;;;;;5010386;28;45631;-77
2021/12/25 14:02:34;;;;;;;0.30;0.30;;;17.10;51.30;;;;;;5009754;28;44789;-77
2021/12/25 14:05:03;;;;;;;0.88;0.52;;;17.10;51.30;;;;;;5000742;28;44650;-77
2021/12/25 14:07:31;;;;;;;0.52;0.47;;;17.10;51.40;;;;;;5010380;28;44658;-76